createdAt,value
2018-07-03T02:12:57.134Z,71.10
2018-07-03T02:15:31.734Z,72.30
2018-07-03T02:18:05.380Z,71.43
2018-07-03T02:20:38.107Z,71.53
2018-07-03T02:26:17.753Z,69.37
2018-07-03T02:28:49.641Z,70.23
2018-07-03T02:31:21.766Z,67.60
2018-07-03T02:33:54.091Z,69.57
2018-07-03T02:36:26.102Z,66.70
2018-07-03T02:38:57.873Z,64.03
2018-07-03T02:41:29.826Z,66.03
2018-07-03T02:44:01.542Z,66.30
2018-07-03T02:46:33.397Z,66.63
2018-07-03T02:49:05.255Z,70.00
2018-07-03T02:51:36.449Z,70.20
2018-07-03T02:54:09.713Z,67.80
2018-07-03T02:56:41.784Z,69.67
2018-07-03T02:59:13.522Z,67.47
2018-07-03T03:01:45.626Z,67.90
2018-07-03T03:04:17.550Z,66.90
2018-07-03T03:06:48.734Z,65.67
2018-07-03T03:09:20.539Z,66.17
2018-07-03T03:11:52.766Z,67.50
2018-07-03T03:14:25.546Z,63.67
2018-07-03T03:16:57.567Z,62.30
2018-07-03T03:19:29.323Z,62.10
2018-07-03T03:22:01.471Z,63.10
2018-07-03T03:24:33.386Z,60.93
2018-07-03T03:27:05.618Z,62.80
2018-07-03T03:29:37.441Z,61.50
2018-07-03T03:32:09.562Z,60.90
2018-07-03T03:34:41.509Z,59.40
2018-07-03T03:37:13.629Z,59.43
2018-07-03T03:39:45.920Z,62.63
2018-07-03T03:42:18.118Z,63.97
2018-07-03T03:44:50.079Z,60.87
2018-07-03T03:47:22.239Z,59.60
2018-07-03T03:49:54.897Z,61.10
2018-07-03T03:52:27.790Z,61.67
2018-07-03T03:54:59.661Z,62.70
2018-07-03T03:57:31.770Z,58.20
2018-07-03T04:00:04.742Z,61.87
2018-07-03T04:02:36.882Z,60.07
2018-07-03T04:05:08.631Z,58.20
2018-07-03T04:07:41.154Z,64.30
2018-07-03T04:10:12.719Z,61.87
2018-07-03T04:12:45.642Z,62.37
2018-07-03T04:15:18.946Z,65.10
2018-07-03T04:17:50.797Z,61.40
2018-07-03T04:20:23.747Z,63.00
2018-07-03T04:22:56.881Z,60.77
2018-07-03T04:25:28.609Z,60.57
2018-07-03T04:28:01.372Z,59.57
2018-07-03T04:30:33.320Z,59.30
2018-07-03T04:33:06.046Z,59.30
2018-07-03T04:35:37.875Z,59.50
2018-07-03T04:38:09.863Z,59.87
2018-07-03T04:40:42.429Z,56.30
2018-07-03T04:43:14.531Z,56.90
2018-07-03T04:45:48.879Z,57.30
2018-07-03T04:48:20.935Z,56.63
2018-07-03T04:50:53.085Z,61.20
2018-07-03T04:53:25.352Z,61.00
2018-07-03T04:55:57.198Z,60.10
2018-07-03T04:58:29.271Z,61.20
2018-07-03T05:01:00.966Z,59.13
2018-07-03T05:03:33.763Z,61.33
2018-07-03T05:06:05.813Z,60.37
2018-07-03T05:08:38.450Z,58.73
2018-07-03T05:11:10.203Z,57.50
2018-07-03T05:13:42.363Z,57.20
2018-07-03T05:16:15.255Z,57.67
2018-07-03T05:18:47.219Z,56.90
2018-07-03T05:21:18.974Z,55.60
2018-07-03T05:23:51.519Z,54.80
2018-07-03T05:26:23.286Z,54.15
2018-07-03T05:28:55.590Z,55.47
2018-07-03T05:31:27.394Z,56.77
2018-07-03T05:33:59.387Z,57.53
2018-07-03T05:36:31.298Z,56.70
2018-07-03T05:39:03.677Z,56.20
2018-07-03T05:41:35.682Z,59.00
2018-07-03T05:44:08.105Z,54.47
2018-07-03T05:46:41.122Z,54.10
2018-07-03T05:49:13.955Z,51.00
2018-07-03T05:51:45.726Z,52.65
2018-07-03T05:54:17.806Z,50.15
2018-07-03T05:56:48.567Z,51.30
2018-07-03T05:59:20.590Z,49.88
2018-07-03T06:01:52.151Z,47.48
2018-07-03T06:04:24.210Z,47.48
2018-07-03T06:06:56.126Z,47.20
2018-07-03T06:09:28.403Z,47.03
2018-07-03T06:11:59.314Z,47.88
2018-07-03T06:14:31.761Z,45.30
2018-07-03T06:17:05.942Z,45.50
2018-07-03T06:19:37.733Z,46.93
2018-07-03T06:22:09.940Z,51.10
2018-07-03T06:24:42.087Z,49.73
2018-07-03T06:27:13.898Z,51.50
2018-07-03T06:29:46.446Z,50.03
2018-07-03T06:32:18.540Z,49.43
2018-07-03T06:34:50.537Z,46.33
2018-07-03T06:37:22.287Z,46.83
2018-07-03T06:39:54.918Z,45.20
2018-07-03T06:42:28.224Z,44.60
2018-07-03T06:45:00.220Z,42.80
2018-07-03T06:47:32.655Z,43.85
2018-07-03T06:50:05.857Z,41.83
2018-07-03T06:52:37.663Z,43.65
2018-07-03T06:55:09.774Z,42.73
2018-07-03T06:57:41.467Z,40.17
2018-07-03T07:00:13.375Z,41.92
2018-07-03T07:02:45.410Z,40.45
2018-07-03T07:05:17.516Z,42.73
2018-07-03T07:07:49.462Z,42.15
2018-07-03T07:10:24.579Z,41.85
2018-07-03T07:12:57.994Z,42.75
2018-07-03T07:15:31.449Z,38.88
2018-07-03T07:18:07.179Z,40.92
2018-07-03T07:20:42.516Z,40.12
2018-07-03T07:23:16.178Z,44.13
2018-07-03T07:25:51.014Z,44.87
2018-07-03T07:28:24.770Z,43.03
2018-07-03T07:30:58.426Z,44.80
2018-07-03T07:33:33.322Z,45.08
2018-07-03T07:36:07.927Z,47.25
2018-07-03T07:38:42.661Z,45.48
2018-07-03T07:41:16.856Z,45.90
2018-07-03T07:43:50.431Z,47.48
2018-07-03T07:48:58.726Z,44.63
2018-07-03T07:51:33.622Z,45.48
2018-07-03T07:54:10.043Z,42.93
2018-07-03T07:56:45.238Z,41.68
2018-07-03T07:59:20.759Z,45.43
2018-07-03T08:01:54.398Z,43.87
2018-07-03T08:04:28.214Z,44.83
2018-07-03T08:07:01.279Z,44.53
2018-07-03T08:09:35.435Z,43.17
2018-07-03T08:12:10.151Z,46.17
2018-07-03T08:14:45.073Z,44.67
2018-07-03T08:17:20.020Z,46.87
2018-07-03T08:19:55.970Z,43.43
2018-07-03T08:22:30.110Z,44.40
2018-07-03T08:25:05.501Z,44.40
2018-07-03T08:27:39.854Z,43.40
2018-07-03T08:30:14.969Z,42.30
2018-07-03T08:32:48.630Z,41.00
2018-07-03T08:35:22.872Z,39.00
2018-07-03T08:37:57.277Z,41.20
2018-07-03T08:40:34.466Z,38.50
2018-07-03T08:43:09.320Z,38.80
2018-07-03T08:45:44.866Z,37.47
2018-07-03T08:48:19.684Z,37.37
2018-07-03T08:50:53.558Z,39.77
2018-07-03T08:53:27.613Z,38.40
2018-07-03T08:56:02.385Z,37.90
2018-07-03T08:58:39.683Z,34.70
2018-07-03T09:01:13.682Z,38.33
2018-07-03T09:03:49.422Z,40.10
2018-07-03T09:06:23.735Z,38.90
2018-07-03T09:08:59.319Z,40.90
2018-07-03T09:11:33.813Z,41.77
2018-07-03T09:14:08.275Z,41.60
2018-07-03T09:16:41.779Z,41.53
2018-07-03T09:19:16.888Z,45.07
2018-07-03T09:21:53.330Z,44.30
2018-07-03T09:24:29.645Z,45.57
2018-07-03T09:27:03.211Z,44.40
2018-07-03T09:29:40.076Z,46.03
2018-07-03T09:32:15.326Z,45.77
2018-07-03T09:34:48.715Z,46.00
2018-07-03T09:37:23.326Z,46.57
2018-07-03T09:39:59.019Z,45.90
2018-07-03T09:42:32.305Z,44.67
2018-07-03T09:45:06.157Z,44.17
2018-07-03T09:47:41.902Z,43.20
2018-07-03T09:50:16.269Z,43.20
2018-07-03T09:52:52.211Z,43.20
2018-07-03T09:55:28.026Z,39.40
2018-07-03T09:58:03.196Z,38.40
2018-07-03T10:00:41.862Z,42.70
2018-07-03T10:03:16.030Z,40.33
2018-07-03T10:05:50.214Z,41.23
2018-07-03T10:08:22.413Z,41.60
2018-07-03T10:10:57.966Z,40.80
2018-07-03T10:13:32.294Z,39.40
2018-07-03T10:16:09.802Z,38.87
2018-07-03T10:18:42.934Z,41.33
2018-07-03T10:21:17.537Z,39.70
2018-07-03T10:23:51.181Z,42.70
2018-07-03T10:26:27.958Z,38.33
2018-07-03T10:29:01.672Z,41.63
2018-07-03T10:31:36.911Z,39.17
2018-07-03T10:34:15.133Z,38.13
2018-07-03T10:36:50.243Z,42.30
2018-07-03T10:39:25.244Z,41.40
2018-07-03T10:41:59.910Z,44.70
2018-07-03T10:44:34.399Z,42.70
2018-07-03T10:47:09.972Z,42.60
2018-07-03T10:49:44.207Z,43.47
2018-07-03T10:52:17.339Z,44.70
2018-07-03T10:54:50.853Z,47.17
2018-07-03T10:57:24.435Z,47.20
2018-07-03T10:59:58.714Z,43.50
2018-07-03T11:02:32.283Z,45.77
2018-07-03T11:05:11.425Z,44.73
2018-07-03T11:07:46.203Z,43.00
2018-07-03T11:10:19.955Z,43.23
2018-07-03T11:12:57.135Z,43.17
2018-07-03T11:15:31.084Z,44.80
2018-07-03T11:18:06.661Z,44.00
2018-07-03T11:20:42.874Z,42.00
2018-07-03T11:23:18.653Z,42.30
2018-07-03T11:25:57.835Z,40.40
2018-07-03T11:28:31.995Z,38.63
2018-07-03T11:31:05.727Z,39.30
2018-07-03T11:33:41.168Z,40.20
2018-07-03T11:36:14.423Z,42.30
2018-07-03T11:38:50.919Z,43.83
2018-07-03T11:41:26.559Z,44.20
2018-07-03T11:44:01.801Z,43.90
2018-07-03T11:46:36.310Z,44.50
2018-07-03T11:49:11.575Z,40.40
2018-07-03T11:51:46.875Z,42.77
2018-07-03T11:54:21.550Z,42.03
2018-07-03T11:56:56.245Z,45.03
2018-07-03T11:59:31.799Z,42.33
2018-07-03T12:02:05.403Z,42.80
2018-07-03T12:04:39.562Z,42.33
2018-07-03T12:07:12.810Z,39.93
2018-07-03T12:09:47.356Z,41.70
2018-07-03T12:12:20.476Z,41.20
2018-07-03T12:14:55.000Z,40.83
2018-07-03T12:17:28.459Z,43.57
2018-07-03T12:20:03.070Z,41.10
2018-07-03T12:22:36.789Z,38.40
2018-07-03T12:25:11.743Z,42.60
2018-07-03T12:27:47.051Z,38.80
2018-07-03T12:30:21.948Z,38.93
2018-07-03T12:32:58.365Z,41.20
2018-07-03T12:35:34.064Z,43.13
2018-07-03T12:38:09.539Z,43.50
2018-07-03T12:40:46.630Z,42.30
2018-07-03T12:43:21.009Z,45.27
2018-07-03T12:45:55.995Z,45.10
2018-07-03T12:48:31.632Z,45.20
2018-07-03T12:51:05.335Z,44.60
2018-07-03T12:53:39.393Z,46.23
2018-07-03T12:56:18.055Z,45.67
2018-07-03T12:58:55.302Z,46.23
2018-07-03T13:01:30.044Z,42.60
2018-07-03T13:04:03.727Z,45.10
2018-07-03T13:06:37.738Z,42.77
2018-07-03T13:09:14.207Z,43.07
2018-07-03T13:11:50.667Z,44.37
2018-07-03T13:14:24.842Z,41.07
2018-07-03T13:16:59.278Z,43.37
2018-07-03T13:19:30.570Z,47.67
2018-07-03T13:22:03.763Z,43.10
2018-07-03T13:24:37.395Z,47.50
2018-07-03T13:27:11.682Z,44.00
2018-07-03T13:29:47.871Z,45.07
2018-07-03T13:32:22.343Z,44.07
2018-07-03T13:34:55.717Z,43.13
2018-07-03T13:37:27.680Z,39.40
2018-07-03T13:39:59.585Z,40.10
2018-07-03T13:42:31.543Z,41.47
2018-07-03T13:45:03.259Z,40.10
2018-07-03T13:47:35.459Z,40.87
2018-07-03T13:50:07.796Z,40.47
2018-07-03T13:52:39.803Z,43.40
2018-07-03T13:55:11.594Z,44.80
2018-07-03T13:57:43.671Z,46.20
2018-07-03T14:00:15.417Z,45.83
2018-07-03T14:02:47.363Z,45.40
2018-07-03T14:05:19.265Z,41.63
2018-07-03T14:07:51.636Z,41.33
2018-07-03T14:10:23.463Z,40.17
2018-07-03T14:12:55.490Z,38.83
2018-07-03T14:15:26.983Z,39.07
2018-07-03T14:17:58.597Z,39.03
2018-07-03T14:20:30.431Z,35.97
2018-07-03T14:23:02.325Z,39.40
2018-07-03T14:25:34.219Z,38.60
2018-07-03T14:28:06.189Z,38.13
2018-07-03T14:30:38.695Z,41.60
2018-07-03T14:33:10.798Z,38.53
2018-07-03T14:35:41.815Z,40.03
2018-07-03T14:38:13.740Z,41.83
2018-07-03T14:40:45.579Z,37.97
2018-07-03T14:43:17.516Z,37.53
2018-07-03T14:45:49.096Z,36.73
2018-07-03T14:48:21.159Z,39.57
2018-07-03T14:50:52.875Z,35.40
2018-07-03T14:53:24.891Z,37.23
2018-07-03T14:55:56.710Z,36.47
2018-07-03T14:58:28.897Z,33.50
2018-07-03T15:01:00.592Z,34.47
2018-07-03T15:03:32.689Z,31.77
2018-07-03T15:06:04.366Z,33.60
2018-07-03T15:08:36.747Z,33.20
2018-07-03T15:11:08.553Z,31.23
2018-07-03T15:13:40.378Z,35.23
2018-07-03T15:16:13.507Z,35.83
2018-07-03T15:18:50.272Z,38.30
2018-07-03T15:21:21.949Z,35.03
2018-07-03T15:23:54.090Z,34.50
2018-07-03T15:26:25.920Z,32.20
2018-07-03T15:28:58.013Z,31.10
2018-07-03T15:31:31.178Z,30.17
2018-07-03T15:34:02.959Z,30.37
2018-07-03T15:36:34.806Z,31.97
2018-07-03T15:39:09.026Z,31.50
2018-07-03T15:41:41.162Z,33.80
2018-07-03T15:44:22.892Z,34.10
2018-07-03T15:46:54.438Z,32.20
2018-07-03T15:49:26.506Z,30.83
2018-07-03T15:51:58.223Z,35.10
2018-07-03T15:54:30.320Z,33.33
2018-07-03T15:57:02.226Z,33.03
2018-07-03T15:59:34.538Z,34.00
2018-07-03T16:02:06.358Z,33.60
2018-07-03T16:04:54.404Z,34.37
2018-07-03T16:07:36.320Z,34.13
2018-07-03T16:10:07.790Z,33.47
2018-07-03T16:12:38.778Z,34.00
2018-07-03T16:15:11.231Z,35.23
2018-07-03T16:17:43.122Z,33.20
2018-07-03T16:20:19.971Z,35.57
2018-07-03T16:22:58.312Z,35.00
2018-07-03T16:25:31.003Z,33.60
2018-07-03T16:28:01.886Z,32.23
2018-07-03T16:30:34.034Z,37.20
2018-07-03T16:33:11.422Z,36.17
2018-07-03T16:35:44.257Z,39.00
2018-07-03T16:38:15.070Z,36.20
2018-07-03T16:40:47.119Z,37.63
2018-07-03T16:43:19.141Z,34.10
2018-07-03T16:45:51.263Z,36.17
2018-07-03T16:48:23.250Z,35.30
2018-07-03T16:50:55.278Z,35.60
2018-07-03T16:53:26.973Z,34.33
2018-07-03T16:55:57.893Z,32.10
2018-07-03T16:58:29.812Z,31.20
2018-07-03T17:01:03.850Z,33.60
2018-07-03T17:03:36.252Z,34.40
2018-07-03T17:06:07.673Z,33.90
2018-07-03T17:08:40.975Z,33.53
2018-07-03T17:11:13.394Z,34.67
2018-07-03T17:13:46.445Z,33.17
2018-07-03T17:16:18.652Z,32.00
2018-07-03T17:18:53.956Z,28.70
2018-07-03T17:21:28.413Z,28.77
2018-07-03T17:24:00.063Z,29.13
2018-07-03T17:26:48.443Z,27.50
